createdAt,value
2018-04-17T00:00:39.308Z,6.57
2018-04-17T00:03:07.209Z,7.83
2018-04-17T00:05:34.700Z,6.73
2018-04-17T00:08:02.171Z,6.20
2018-04-17T00:10:29.811Z,7.03
2018-04-17T00:12:57.312Z,6.33
2018-04-17T00:15:24.790Z,6.60
2018-04-17T00:17:52.696Z,6.87
2018-04-17T00:20:20.248Z,6.67
2018-04-17T00:22:47.773Z,6.73
2018-04-17T00:25:15.665Z,6.90
2018-04-17T00:27:43.132Z,8.17
2018-04-17T00:30:10.735Z,6.30
2018-04-17T00:32:38.207Z,7.17
2018-04-17T00:35:05.792Z,7.70
2018-04-17T00:37:33.315Z,7.10
2018-04-17T00:40:01.136Z,7.30
2018-04-17T00:42:29.110Z,6.60
2018-04-17T00:44:56.590Z,6.73
2018-04-17T00:47:24.519Z,6.63
2018-04-17T00:49:52.020Z,6.60
2018-04-17T00:52:19.978Z,6.40
2018-04-17T00:54:47.460Z,7.67
2018-04-17T00:57:15.432Z,7.00
2018-04-17T00:59:43.380Z,6.60
2018-04-17T01:02:10.885Z,7.30
2018-04-17T01:04:38.416Z,8.30
2018-04-17T01:07:05.943Z,7.40
2018-04-17T01:09:33.437Z,7.17
2018-04-17T01:12:00.969Z,6.97
2018-04-17T01:14:28.466Z,7.63
2018-04-17T01:16:55.976Z,6.70
2018-04-17T01:19:23.464Z,6.70
2018-04-17T01:21:51.734Z,7.37
2018-04-17T01:24:19.241Z,7.40
2018-04-17T01:26:47.113Z,6.70
2018-04-17T01:29:15.080Z,6.17
2018-04-17T01:31:43.056Z,6.53
2018-04-17T01:34:10.528Z,7.23
2018-04-17T01:36:38.458Z,7.50
2018-04-17T01:39:05.969Z,7.00
2018-04-17T01:41:33.839Z,8.40
2018-04-17T01:44:01.715Z,7.30
2018-04-17T01:46:29.191Z,7.00
2018-04-17T01:48:56.822Z,7.70
2018-04-17T01:51:24.715Z,6.90
2018-04-17T01:53:52.603Z,7.20
2018-04-17T01:56:20.104Z,7.47
2018-04-17T01:58:47.568Z,8.50
2018-04-17T02:01:15.123Z,7.07
2018-04-17T02:03:42.623Z,7.70
2018-04-17T02:06:10.327Z,7.10
2018-04-17T02:08:37.801Z,6.87
2018-04-17T02:11:05.304Z,8.20
2018-04-17T02:13:32.839Z,7.77
2018-04-17T02:16:00.329Z,7.63
2018-04-17T02:18:27.837Z,7.37
2018-04-17T02:20:55.317Z,8.20
2018-04-17T02:23:22.785Z,8.03
2018-04-17T02:25:50.290Z,8.60
2018-04-17T02:28:17.757Z,7.47
2018-04-17T02:30:45.654Z,8.60
2018-04-17T02:33:13.156Z,8.53
2018-04-17T02:35:40.646Z,8.63
2018-04-17T02:38:08.128Z,7.27
2018-04-17T02:40:36.004Z,8.60
2018-04-17T02:43:03.944Z,7.60
2018-04-17T02:45:31.449Z,8.10
2018-04-17T02:47:58.929Z,8.07
2018-04-17T02:50:26.453Z,7.70
2018-04-17T02:52:54.463Z,8.90
2018-04-17T02:55:21.985Z,7.30
2018-04-17T02:57:50.414Z,7.33
2018-04-17T03:00:17.905Z,7.70
2018-04-17T03:02:45.488Z,7.57
2018-04-17T03:05:13.031Z,7.70
2018-04-17T03:07:41.065Z,7.77
2018-04-17T03:10:08.494Z,7.80
2018-04-17T03:12:35.944Z,8.53
2018-04-17T03:15:03.486Z,6.83
2018-04-17T03:17:30.994Z,6.90
2018-04-17T03:19:58.873Z,8.37
2018-04-17T03:22:26.411Z,7.67
2018-04-17T03:24:53.906Z,7.23
2018-04-17T03:27:21.446Z,8.17
2018-04-17T03:29:49.015Z,7.70
2018-04-17T03:32:16.881Z,7.50
2018-04-17T03:34:44.380Z,8.50
2018-04-17T03:37:11.883Z,8.27
2018-04-17T03:39:39.447Z,8.80
2018-04-17T03:42:06.923Z,8.30
2018-04-17T03:44:34.394Z,8.87
2018-04-17T03:47:02.360Z,8.47
2018-04-17T03:49:30.331Z,8.90
2018-04-17T03:51:57.815Z,9.20
2018-04-17T03:54:25.786Z,8.27
2018-04-17T03:56:53.652Z,8.27
2018-04-17T03:59:21.654Z,8.60
2018-04-17T04:01:49.142Z,9.23
2018-04-17T04:04:16.679Z,8.17
2018-04-17T04:06:44.224Z,9.00
2018-04-17T04:09:12.173Z,8.50
2018-04-17T04:11:39.772Z,9.60
2018-04-17T04:14:07.647Z,8.87
2018-04-17T04:16:47.073Z,9.70
2018-04-17T04:19:27.043Z,8.80
2018-04-17T04:22:06.448Z,9.43
2018-04-17T04:24:46.378Z,9.07
2018-04-17T04:27:13.935Z,9.20
2018-04-17T04:29:42.188Z,10.13
2018-04-17T04:32:09.655Z,9.07
2018-04-17T04:34:37.139Z,9.30
2018-04-17T04:37:04.716Z,9.70
2018-04-17T04:39:32.640Z,9.80
2018-04-17T04:42:00.122Z,9.33
2018-04-17T04:44:27.577Z,10.10
2018-04-17T04:46:55.032Z,9.90
2018-04-17T04:49:22.528Z,11.37
2018-04-17T04:51:50.008Z,13.50
2018-04-17T04:54:17.893Z,12.53
2018-04-17T04:56:45.467Z,11.30
2018-04-17T04:59:12.974Z,10.53
2018-04-17T05:01:40.561Z,8.93
2018-04-17T05:04:08.531Z,9.30
2018-04-17T05:06:36.713Z,10.20
2018-04-17T05:09:04.186Z,9.67
2018-04-17T05:11:32.138Z,10.47
2018-04-17T05:13:59.642Z,9.27
2018-04-17T05:16:27.162Z,10.40
2018-04-17T05:18:54.750Z,9.20
2018-04-17T05:21:22.700Z,9.97
2018-04-17T05:23:50.349Z,9.37
2018-04-17T05:26:17.797Z,10.10
2018-04-17T05:28:45.313Z,11.37
2018-04-17T05:31:13.284Z,10.83
2018-04-17T05:33:41.180Z,10.40
2018-04-17T05:36:08.679Z,10.47
2018-04-17T05:38:36.179Z,10.80
2018-04-17T05:41:04.128Z,11.77
2018-04-17T05:43:31.611Z,10.87
2018-04-17T05:45:59.501Z,10.47
2018-04-17T05:48:27.012Z,10.53
2018-04-17T05:50:54.485Z,10.17
2018-04-17T05:53:22.059Z,10.90
2018-04-17T05:55:49.663Z,10.87
2018-04-17T05:58:17.159Z,10.47
2018-04-17T06:00:44.631Z,11.80
2018-04-17T06:03:12.153Z,10.80
2018-04-17T06:05:39.629Z,11.57
2018-04-17T06:08:07.140Z,11.30
2018-04-17T06:10:34.640Z,10.90
2018-04-17T06:13:02.224Z,12.67
2018-04-17T06:15:29.706Z,11.00
2018-04-17T06:17:57.226Z,11.77
2018-04-17T06:20:25.223Z,11.37
2018-04-17T06:22:52.737Z,11.03
2018-04-17T06:25:20.776Z,11.37
2018-04-17T06:27:48.279Z,11.03
2018-04-17T06:30:16.297Z,10.30
2018-04-17T06:32:43.786Z,11.30
2018-04-17T06:35:11.370Z,10.20
2018-04-17T06:37:38.868Z,10.93
2018-04-17T06:40:06.358Z,11.50
2018-04-17T06:42:33.946Z,10.90
2018-04-17T06:45:01.431Z,10.73
2018-04-17T06:47:29.351Z,11.67
2018-04-17T06:49:57.301Z,10.40
2018-04-17T06:52:24.808Z,9.90
2018-04-17T06:54:52.334Z,10.57
2018-04-17T06:57:19.822Z,10.47
2018-04-17T06:59:47.691Z,9.00
2018-04-17T07:02:15.179Z,10.97
2018-04-17T07:04:42.659Z,10.73
2018-04-17T07:07:10.204Z,10.77
2018-04-17T07:09:37.711Z,10.77
2018-04-17T07:12:05.251Z,10.60
2018-04-17T07:14:32.729Z,11.67
2018-04-17T07:17:00.292Z,12.00
2018-04-17T07:19:27.723Z,11.20
2018-04-17T07:21:55.240Z,12.40
2018-04-17T07:24:22.731Z,10.57
2018-04-17T07:26:50.232Z,10.90
2018-04-17T07:29:20.264Z,11.83
2018-04-17T07:31:47.798Z,12.47
2018-04-17T07:34:15.378Z,11.27
2018-04-17T07:36:42.864Z,12.70
2018-04-17T07:39:10.387Z,11.73
2018-04-17T07:41:37.869Z,12.67
2018-04-17T07:44:05.844Z,13.50
2018-04-17T07:46:33.388Z,13.60
2018-04-17T07:49:06.537Z,12.90
2018-04-17T07:51:34.003Z,14.73
2018-04-17T07:54:01.492Z,14.20
2018-04-17T07:56:29.838Z,14.83
2018-04-17T07:58:57.313Z,14.90
2018-04-17T08:01:25.519Z,14.73
2018-04-17T08:03:53.008Z,15.70
2018-04-17T08:06:20.969Z,15.20
2018-04-17T08:08:48.523Z,16.70
2018-04-17T08:11:16.028Z,18.87
2018-04-17T08:13:43.901Z,18.23
2018-04-17T08:16:11.734Z,17.20
2018-04-17T08:18:39.241Z,17.50
2018-04-17T08:21:06.752Z,18.53
2018-04-17T08:23:34.242Z,19.13
2018-04-17T08:26:02.217Z,18.93
2018-04-17T08:28:30.115Z,19.47
2018-04-17T08:30:57.650Z,19.13
2018-04-17T08:33:25.196Z,17.40
2018-04-17T08:35:52.709Z,19.07
2018-04-17T08:38:20.198Z,19.53
2018-04-17T08:40:47.692Z,20.50
2018-04-17T08:43:15.172Z,20.23
2018-04-17T08:45:43.074Z,17.73
2018-04-17T08:48:10.951Z,18.43
2018-04-17T08:50:38.476Z,19.20
2018-04-17T08:53:06.376Z,19.40
2018-04-17T08:55:33.933Z,19.80
2018-04-17T08:58:01.461Z,18.67
2018-04-17T09:00:28.924Z,18.63
2018-04-17T09:02:56.477Z,19.53
2018-04-17T09:05:24.115Z,16.40
2018-04-17T09:07:51.606Z,17.40
2018-04-17T09:10:19.157Z,20.20
2018-04-17T09:12:46.664Z,20.10
2018-04-17T09:15:14.527Z,18.47
2018-04-17T09:17:42.519Z,18.87
2018-04-17T09:20:10.405Z,17.23
2018-04-17T09:22:37.909Z,17.40
2018-04-17T09:25:05.540Z,18.60
2018-04-17T09:27:33.409Z,18.87
2018-04-17T09:30:01.297Z,18.87
2018-04-17T09:32:28.761Z,18.33
2018-04-17T09:34:56.281Z,17.70
2018-04-17T09:37:24.163Z,17.77
2018-04-17T09:39:51.711Z,19.90
2018-04-17T09:42:19.623Z,18.63
2018-04-17T09:44:47.454Z,17.93
2018-04-17T09:47:15.115Z,17.87
2018-04-17T09:49:43.001Z,17.63
2018-04-17T09:52:10.676Z,17.40
2018-04-17T09:54:38.352Z,18.43
2018-04-17T09:57:06.258Z,16.97
2018-04-17T09:59:33.813Z,16.83
2018-04-17T10:02:01.370Z,16.40
2018-04-17T10:04:29.210Z,15.70
2018-04-17T10:06:56.689Z,16.20
2018-04-17T10:09:24.191Z,16.27
2018-04-17T10:11:51.972Z,15.60
2018-04-17T10:14:19.856Z,15.83
2018-04-17T10:16:47.849Z,16.80
2018-04-17T10:19:15.709Z,15.73
2018-04-17T10:21:43.884Z,17.07
2018-04-17T10:24:11.920Z,14.43
2018-04-17T10:26:39.646Z,15.40
2018-04-17T10:29:07.117Z,13.20
2018-04-17T10:31:34.622Z,13.70
2018-04-17T10:34:02.197Z,14.80
2018-04-17T10:36:29.769Z,12.50
2018-04-17T10:38:57.279Z,14.13
2018-04-17T10:41:24.752Z,15.50
2018-04-17T10:43:52.268Z,15.47
2018-04-17T10:46:20.681Z,16.50
2018-04-17T10:48:48.256Z,17.57
2018-04-17T10:51:15.741Z,15.23
2018-04-17T10:53:43.215Z,14.37
2018-04-17T10:56:10.797Z,15.97
2018-04-17T10:58:38.537Z,14.70
2018-04-17T11:01:06.098Z,13.60
2018-04-17T11:03:33.599Z,13.10
2018-04-17T11:06:01.498Z,4.70
2018-04-17T11:08:29.032Z,5.57
2018-04-17T11:10:56.906Z,7.63
2018-04-17T11:13:24.775Z,5.83
2018-04-17T11:15:52.342Z,5.47
2018-04-17T11:18:20.366Z,4.63
2018-04-17T11:20:48.064Z,4.40
2018-04-17T11:23:15.582Z,4.97
2018-04-17T11:25:43.126Z,5.07
2018-04-17T11:28:11.089Z,6.37
2018-04-17T11:30:39.245Z,6.23
2018-04-17T11:33:07.237Z,5.70
2018-04-17T11:35:34.732Z,6.37
2018-04-17T11:38:02.272Z,4.90
2018-04-17T11:40:30.548Z,4.90
2018-04-17T11:42:58.538Z,4.47
2018-04-17T11:45:26.006Z,6.57
2018-04-17T11:47:53.474Z,6.07
2018-04-17T11:50:21.160Z,4.80
2018-04-17T11:52:48.798Z,5.10
2018-04-17T11:55:16.290Z,7.80
2018-04-17T11:57:44.000Z,7.50
2018-04-17T12:00:11.668Z,6.60
2018-04-17T12:02:39.431Z,5.60
2018-04-17T12:05:07.155Z,7.07
2018-04-17T12:07:34.925Z,6.80
2018-04-17T12:10:03.472Z,5.63
2018-04-17T12:12:31.679Z,4.83
2018-04-17T12:14:59.656Z,4.00
2018-04-17T12:17:27.146Z,3.80
2018-04-17T12:19:54.633Z,4.03
2018-04-17T12:22:22.179Z,4.43
2018-04-17T12:24:49.679Z,4.27
2018-04-17T12:27:17.621Z,4.63
2018-04-17T12:29:45.203Z,4.40
2018-04-17T12:32:12.708Z,4.00
2018-04-17T12:34:40.174Z,3.67
2018-04-17T12:37:08.037Z,3.87
2018-04-17T12:39:35.664Z,3.60
2018-04-17T12:42:03.177Z,3.70
2018-04-17T12:44:30.681Z,4.70
2018-04-17T12:46:58.305Z,4.30
2018-04-17T12:49:25.836Z,4.47
2018-04-17T12:51:53.801Z,4.20
2018-04-17T12:54:21.703Z,4.27
2018-04-17T12:56:49.175Z,4.50
2018-04-17T12:59:16.633Z,3.53
2018-04-17T13:01:44.089Z,4.77
2018-04-17T13:04:11.740Z,4.10
2018-04-17T13:06:39.808Z,3.97
2018-04-17T13:09:08.179Z,3.83
2018-04-17T13:11:35.685Z,3.30
2018-04-17T13:14:03.220Z,4.60
2018-04-17T13:16:31.197Z,4.37
2018-04-17T13:18:59.294Z,3.87
2018-04-17T13:21:26.825Z,4.00
2018-04-17T13:23:54.309Z,3.97
2018-04-17T13:26:21.803Z,3.73
2018-04-17T13:28:49.363Z,4.17
2018-04-17T13:31:16.823Z,4.07
2018-04-17T13:33:44.837Z,3.93
2018-04-17T13:36:12.384Z,3.10
2018-04-17T13:38:39.864Z,2.93
2018-04-17T13:41:07.436Z,3.20
2018-04-17T13:43:34.944Z,3.67
2018-04-17T13:46:02.430Z,4.00
2018-04-17T13:48:29.887Z,4.00
2018-04-17T13:50:57.386Z,3.00
2018-04-17T13:53:24.954Z,3.10
2018-04-17T13:55:52.442Z,3.10
2018-04-17T13:58:19.942Z,3.00
2018-04-17T14:00:47.424Z,4.00
2018-04-17T14:03:14.909Z,3.47
2018-04-17T14:05:42.883Z,3.53
2018-04-17T14:08:10.751Z,2.90
2018-04-17T14:10:38.210Z,4.13
2018-04-17T14:13:05.690Z,3.23
2018-04-17T14:15:33.629Z,3.00
2018-04-17T14:18:01.214Z,3.50
2018-04-17T14:20:29.189Z,4.07
2018-04-17T14:22:57.059Z,3.07
2018-04-17T14:25:24.540Z,2.20
2018-04-17T14:27:52.497Z,2.90
2018-04-17T14:30:20.039Z,2.80
2018-04-17T14:32:47.510Z,2.87
2018-04-17T14:35:15.063Z,2.70
2018-04-17T14:37:42.555Z,3.03
2018-04-17T14:40:10.454Z,3.27
2018-04-17T14:42:37.977Z,3.17
2018-04-17T14:45:05.440Z,2.77
2018-04-17T14:47:33.123Z,3.90
2018-04-17T14:50:01.123Z,2.90
2018-04-17T14:52:28.590Z,3.03
2018-04-17T14:54:56.212Z,2.80
2018-04-17T14:57:23.690Z,3.47
2018-04-17T14:59:51.563Z,3.17
2018-04-17T15:02:19.473Z,2.90
2018-04-17T15:04:46.964Z,3.00
2018-04-17T15:07:14.743Z,3.60
2018-04-17T15:09:42.216Z,3.40
2018-04-17T15:12:10.235Z,3.10
2018-04-17T15:14:37.760Z,2.90
2018-04-17T15:17:05.632Z,3.00
2018-04-17T15:19:33.552Z,2.80
2018-04-17T15:22:01.046Z,3.30
2018-04-17T15:24:28.642Z,2.97
2018-04-17T15:26:56.611Z,3.00
2018-04-17T15:29:24.508Z,3.20
2018-04-17T15:31:52.039Z,3.07
2018-04-17T15:34:19.524Z,3.50
2018-04-17T15:36:47.004Z,3.87
2018-04-17T15:39:14.646Z,3.10
2018-04-17T15:41:42.594Z,3.70
2018-04-17T15:44:10.159Z,4.20
2018-04-17T15:46:37.735Z,3.40
2018-04-17T15:49:05.205Z,4.90
2018-04-17T15:51:33.078Z,3.57
2018-04-17T15:54:00.951Z,3.90
2018-04-17T15:56:28.880Z,3.37
2018-04-17T15:58:56.381Z,3.23
2018-04-17T16:01:24.339Z,3.20
2018-04-17T16:03:51.805Z,3.30
2018-04-17T16:06:19.322Z,3.40
2018-04-17T16:08:47.040Z,3.20
2018-04-17T16:11:14.921Z,3.50
2018-04-17T16:13:42.917Z,3.27
2018-04-17T16:16:10.384Z,3.30
2018-04-17T16:18:37.852Z,3.63
2018-04-17T16:21:05.426Z,3.43
2018-04-17T16:23:32.929Z,6.70
2018-04-17T16:26:00.517Z,33.70
2018-04-17T16:28:28.388Z,6.00
2018-04-17T16:30:56.265Z,4.33
2018-04-17T16:33:23.808Z,4.80
2018-04-17T16:35:51.819Z,4.90
2018-04-17T16:38:19.315Z,4.30
2018-04-17T16:40:46.781Z,4.30
2018-04-17T16:43:14.266Z,4.50
2018-04-17T16:45:42.056Z,5.40
2018-04-17T16:48:09.921Z,4.33
2018-04-17T16:50:37.985Z,4.23
2018-04-17T16:53:05.821Z,4.77
2018-04-17T16:55:33.430Z,4.70
2018-04-17T16:58:01.386Z,4.50
2018-04-17T17:00:28.867Z,4.90
2018-04-17T17:02:56.724Z,5.13
2018-04-17T17:05:24.322Z,4.43
2018-04-17T17:07:51.802Z,3.83
2018-04-17T17:10:19.318Z,4.70
2018-04-17T17:12:46.807Z,4.80
2018-04-17T17:15:14.692Z,5.13
2018-04-17T17:17:42.232Z,5.80
2018-04-17T17:20:10.198Z,4.53
2018-04-17T17:22:38.139Z,5.60
2018-04-17T17:25:05.617Z,4.50
2018-04-17T17:27:33.139Z,4.57
2018-04-17T17:30:00.629Z,5.10
2018-04-17T17:32:28.241Z,5.27
2018-04-17T17:34:55.808Z,5.10
2018-04-17T17:37:23.780Z,4.33
2018-04-17T17:39:51.758Z,4.50
2018-04-17T17:42:19.268Z,5.00
2018-04-17T17:44:46.760Z,4.17
2018-04-17T17:47:14.742Z,5.60
2018-04-17T17:49:42.644Z,6.40
2018-04-17T17:52:10.147Z,5.93
2018-04-17T17:54:37.644Z,6.00
2018-04-17T17:57:05.537Z,5.10
2018-04-17T17:59:33.181Z,5.37
2018-04-17T18:02:01.179Z,4.57
2018-04-17T18:04:28.711Z,6.20
2018-04-17T18:06:56.521Z,6.23
2018-04-17T18:09:24.325Z,6.13
2018-04-17T18:11:51.844Z,6.13
2018-04-17T18:14:19.348Z,5.90
2018-04-17T18:16:46.814Z,6.50
2018-04-17T18:19:14.394Z,6.00
2018-04-17T18:21:41.881Z,5.90
2018-04-17T18:24:09.927Z,6.60
2018-04-17T18:26:37.445Z,6.80
2018-04-17T18:29:04.935Z,6.50
2018-04-17T18:31:32.446Z,6.72
2018-04-17T18:33:59.955Z,6.27
2018-04-17T18:36:27.556Z,6.10
2018-04-17T18:38:55.022Z,5.37
2018-04-17T18:41:22.899Z,6.30
2018-04-17T18:43:50.754Z,6.63
2018-04-17T18:46:18.412Z,5.70
2018-04-17T18:48:46.092Z,5.77
2018-04-17T18:51:13.573Z,4.50
2018-04-17T18:53:41.447Z,5.67
2018-04-17T18:56:11.396Z,6.60
2018-04-17T18:58:38.916Z,6.60
2018-04-17T19:01:06.881Z,6.53
2018-04-17T19:03:34.353Z,5.60
2018-04-17T19:06:02.266Z,6.20
2018-04-17T19:08:29.743Z,6.33
2018-04-17T19:10:57.321Z,6.97
2018-04-17T19:13:24.880Z,6.30
2018-04-17T19:15:52.367Z,6.07
2018-04-17T19:18:19.967Z,5.80
2018-04-17T19:20:47.496Z,6.00
2018-04-17T19:23:15.371Z,6.70
2018-04-17T19:25:42.892Z,6.20
2018-04-17T19:28:10.392Z,7.00
2018-04-17T19:30:37.870Z,6.70
2018-04-17T19:33:05.734Z,6.93
2018-04-17T19:35:33.605Z,7.30
2018-04-17T19:38:01.116Z,8.43
2018-04-17T19:40:28.595Z,7.43
2018-04-17T19:42:56.076Z,6.63
2018-04-17T19:45:23.576Z,7.20
2018-04-17T19:47:51.870Z,7.50
2018-04-17T19:50:19.454Z,7.90
2018-04-17T19:52:46.992Z,7.13
2018-04-17T19:55:14.898Z,7.67
2018-04-17T19:57:42.401Z,8.97
2018-04-17T20:00:09.912Z,8.33
2018-04-17T20:02:38.028Z,8.60
2018-04-17T20:05:05.631Z,7.30
2018-04-17T20:07:33.198Z,8.07
2018-04-17T20:10:00.740Z,8.53
2018-04-17T20:12:28.642Z,8.10
2018-04-17T20:14:56.122Z,8.70
2018-04-17T20:17:24.569Z,10.03
2018-04-17T20:19:52.469Z,8.77
2018-04-17T20:22:20.001Z,9.10
2018-04-17T20:24:47.889Z,7.90
2018-04-17T20:27:15.827Z,7.80
2018-04-17T20:29:43.815Z,8.90
2018-04-17T20:32:11.382Z,8.60
2018-04-17T20:34:39.771Z,8.97
2018-04-17T20:37:07.741Z,9.40
2018-04-17T20:39:35.441Z,9.33
2018-04-17T20:42:02.963Z,8.17
2018-04-17T20:44:30.844Z,9.33
2018-04-17T20:46:58.726Z,7.70
2018-04-17T20:49:26.695Z,8.47
2018-04-17T20:51:54.676Z,8.90
2018-04-17T20:54:22.561Z,8.60
2018-04-17T20:56:50.077Z,8.60
2018-04-17T20:59:17.571Z,8.80
2018-04-17T21:01:45.439Z,8.07
2018-04-17T21:04:13.302Z,8.00
2018-04-17T21:06:41.170Z,8.30
2018-04-17T21:09:08.658Z,8.10
2018-04-17T21:11:36.151Z,8.30
2018-04-17T21:14:03.607Z,7.97
2018-04-17T21:16:31.194Z,7.90
2018-04-17T21:18:58.677Z,7.57
2018-04-17T21:21:26.173Z,7.07
2018-04-17T21:23:53.720Z,7.00
2018-04-17T21:26:21.300Z,8.17
2018-04-17T21:28:49.283Z,8.10
2018-04-17T21:31:17.807Z,7.30
2018-04-17T21:33:45.826Z,9.03
2018-04-17T21:36:14.023Z,7.60
2018-04-17T21:38:41.546Z,7.20
2018-04-17T21:41:09.040Z,8.10
2018-04-17T21:43:36.581Z,8.17
2018-04-17T21:46:04.047Z,7.13
2018-04-17T21:48:31.915Z,7.40
2018-04-17T21:50:59.468Z,7.63
2018-04-17T21:53:26.948Z,7.77
2018-04-17T21:55:54.833Z,7.13
2018-04-17T21:58:22.679Z,8.70
2018-04-17T22:00:50.151Z,7.50
2018-04-17T22:03:18.007Z,7.10
2018-04-17T22:05:45.562Z,8.00
2018-04-17T22:08:13.017Z,8.37
2018-04-17T22:10:40.474Z,8.20
2018-04-17T22:13:07.932Z,8.50
2018-04-17T22:15:35.413Z,8.47
2018-04-17T22:18:02.920Z,7.27
2018-04-17T22:20:30.389Z,8.93
2018-04-17T22:22:57.878Z,8.90
2018-04-17T22:25:25.335Z,8.50
2018-04-17T22:27:52.791Z,8.77
2018-04-17T22:30:20.398Z,8.90
2018-04-17T22:32:47.861Z,8.33
2018-04-17T22:35:15.323Z,9.77
2018-04-17T22:37:42.793Z,8.20
2018-04-17T22:40:10.645Z,8.80
2018-04-17T22:42:38.121Z,8.40
2018-04-17T22:45:05.583Z,8.03
2018-04-17T22:47:33.047Z,8.77
2018-04-17T22:50:00.533Z,9.50
2018-04-17T22:52:28.008Z,8.53
2018-04-17T22:54:55.981Z,9.33
2018-04-17T22:57:23.451Z,8.60
2018-04-17T22:59:51.900Z,8.40
2018-04-17T23:02:19.762Z,9.97
2018-04-17T23:04:47.308Z,8.67
2018-04-17T23:07:14.834Z,8.97
2018-04-17T23:09:42.416Z,9.70
2018-04-17T23:12:09.868Z,9.00
2018-04-17T23:14:37.332Z,8.70
2018-04-17T23:17:04.934Z,9.80
2018-04-17T23:19:32.449Z,9.73
2018-04-17T23:21:59.960Z,10.30
2018-04-17T23:24:27.425Z,9.97
2018-04-17T23:26:54.910Z,9.03
2018-04-17T23:29:22.853Z,9.53
2018-04-17T23:31:50.409Z,9.30
2018-04-17T23:34:17.865Z,9.40
2018-04-17T23:36:45.324Z,9.00
2018-04-17T23:39:12.789Z,10.27
2018-04-17T23:41:40.249Z,9.87
2018-04-17T23:44:07.727Z,9.13
2018-04-17T23:46:35.185Z,9.50
2018-04-17T23:49:02.662Z,9.40
2018-04-17T23:51:30.120Z,8.90
2018-04-17T23:53:57.580Z,8.17
2018-04-17T23:56:25.115Z,10.23
2018-04-17T23:58:52.645Z,9.40
